Terminal Aerodrome Forecast
Issued by NWS

Home | Current Version | Previous Version | Text Only | Print | Product List | Glossary On
Versions: 1 2 3 4 5 6 7 8 9 10 11 12 13 14 15 16 17 18 19 20
122
FTUS46 KMTR 262333
TAFSTS
TAF
KSTS 262333Z 2700/2724 16010KT 1 1/2SM -RA BR BKN008 BKN016 OVC024
     FM270300 23004KT 5SM -RA BR SCT008 BKN012 OVC025
     FM270700 30003KT 5SM BR VCSH SCT008 BKN025 OVC045
     FM271500 32006KT P6SM SCT015 BKN050
     FM272100 31010KT P6SM FEW025 SCT050=

USA.gov is the U.S. government's official web portal to all federal, state and local government web resources and services.